Time;durP1;ratioP1;P1;durP2;ratioP2;P2;SDS_P1;SDS_P2;PMS_P1;PMS_P2;Temp;Humidity;BMP_temperature;BMP_pressure;BME280_temperature;BME280_humidity;BME280_pressure;Samples;Min_cycle;Max_cycle;Signal;HPM_P1;HPM_P2
2022/12/10 00:01:28;;;;;;;59.45;22.73;;;0.50;99.90;;;;;;5089433;28;20127;-59
2022/12/10 00:03:54;;;;;;;56.83;23.73;;;0.50;99.90;;;;;;5087543;28;20044;-59
2022/12/10 00:06:24;;;;;;;62.55;25.52;;;0.50;99.90;;;;;;5093351;28;20076;-59
2022/12/10 00:08:51;;;;;;;65.03;24.63;;;0.60;99.90;;;;;;5093943;28;20400;-59
2022/12/10 00:11:20;;;;;;;78.97;24.83;;;0.60;99.90;;;;;;5093843;28;20500;-59
2022/12/10 00:13:49;;;;;;;66.38;24.85;;;0.60;99.90;;;;;;5075693;28;20047;-59
2022/12/10 00:16:18;;;;;;;66.88;24.88;;;0.60;99.90;;;;;;5093208;28;20087;-59
2022/12/10 00:18:45;;;;;;;61.60;23.42;;;0.70;99.90;;;;;;5091792;28;20500;-61
2022/12/10 00:21:15;;;;;;;65.93;24.95;;;0.70;99.90;;;;;;5093609;28;20483;-58
2022/12/10 00:23:42;;;;;;;64.32;24.02;;;0.80;99.90;;;;;;5085084;28;20049;-59
2022/12/10 00:26:13;;;;;;;57.55;22.70;;;0.80;99.90;;;;;;5093720;28;20496;-59
2022/12/10 00:28:41;;;;;;;53.45;23.02;;;0.80;99.90;;;;;;5090374;28;20560;-58
2022/12/10 00:31:12;;;;;;;62.95;22.63;;;0.80;99.90;;;;;;5086615;28;20067;-60
2022/12/10 00:33:39;;;;;;;58.85;23.50;;;0.80;99.90;;;;;;5072060;28;20086;-60
2022/12/10 00:36:11;;;;;;;55.33;23.65;;;0.80;99.90;;;;;;5093585;28;20043;-60
2022/12/10 00:38:39;;;;;;;60.05;24.48;;;0.80;99.90;;;;;;5076025;28;20032;-60
2022/12/10 00:41:10;;;;;;;63.10;24.80;;;0.80;99.90;;;;;;5067415;28;20048;-60
2022/12/10 00:43:37;;;;;;;63.47;23.92;;;0.80;99.90;;;;;;5092608;28;20062;-60
2022/12/10 00:46:04;;;;;;;45.40;18.60;;;0.80;99.90;;;;;;5090231;28;20048;-60
2022/12/10 00:48:31;;;;;;;61.35;25.27;;;0.90;99.90;;;;;;5075083;28;20093;-60
2022/12/10 00:51:08;;;;;;;67.60;24.92;;;0.80;99.90;;;;;;5090104;28;20044;-60
2022/12/10 00:53:37;;;;;;;71.03;25.38;;;0.80;99.90;;;;;;5068758;28;20044;-60
2022/12/10 00:56:06;;;;;;;60.35;23.38;;;0.70;99.90;;;;;;5093068;28;20404;-60
2022/12/10 00:58:35;;;;;;;56.05;23.55;;;0.70;99.90;;;;;;5092443;28;20094;-60
2022/12/10 01:01:19;;;;;;;57.38;23.67;;;0.70;99.90;;;;;;5091834;28;20413;-60
2022/12/10 01:03:47;;;;;;;53.67;22.65;;;0.70;99.90;;;;;;5084862;28;20064;-60
2022/12/10 01:06:26;;;;;;;56.08;24.17;;;0.70;99.90;;;;;;5086034;28;20081;-60
2022/12/10 01:08:56;;;;;;;58.40;23.92;;;0.80;99.90;;;;;;5085599;28;20056;-60
2022/12/10 01:11:26;;;;;;;58.38;23.33;;;0.80;99.90;;;;;;5073241;28;20055;-60
2022/12/10 01:13:54;;;;;;;51.55;22.05;;;0.80;99.90;;;;;;5090395;28;20447;-60
2022/12/10 01:16:22;;;;;;;56.00;22.40;;;0.80;99.90;;;;;;5091590;28;20044;-60
2022/12/10 01:18:53;;;;;;;56.58;23.02;;;0.80;99.90;;;;;;5089120;28;20062;-60
2022/12/10 01:21:20;;;;;;;48.78;22.83;;;0.80;99.90;;;;;;5074271;28;20043;-60
2022/12/10 01:23:49;;;;;;;50.30;21.95;;;0.80;99.90;;;;;;5092324;28;20032;-60
2022/12/10 01:26:19;;;;;;;49.08;22.20;;;0.80;99.90;;;;;;5085045;28;20105;-60
2022/12/10 01:28:47;;;;;;;53.28;21.50;;;0.80;99.90;;;;;;5070441;28;20048;-60
2022/12/10 01:31:16;;;;;;;;;;;0.80;99.90;;;;;;5073375;28;20097;-60
2022/12/10 01:33:43;;;;;;;55.10;22.02;;;0.80;99.90;;;;;;5086596;28;19928;-60
2022/12/10 01:36:13;;;;;;;39.50;15.10;;;0.80;99.90;;;;;;5072132;28;20097;-60
2022/12/10 01:38:41;;;;;;;61.28;23.20;;;0.70;99.90;;;;;;5090661;28;20028;-60
2022/12/10 01:41:14;;;;;;;51.97;21.80;;;0.70;99.90;;;;;;5083479;28;20078;-60
2022/12/10 01:44:23;;;;;;;54.28;22.25;;;0.70;99.90;;;;;;5082344;28;20070;-60
2022/12/10 01:46:53;;;;;;;50.58;22.15;;;0.70;99.90;;;;;;5091466;28;20442;-60
2022/12/10 01:49:25;;;;;;;51.35;21.60;;;0.70;99.90;;;;;;5064538;28;20117;-60
2022/12/10 01:51:54;;;;;;;48.92;22.50;;;0.70;99.90;;;;;;5053627;28;20086;-60
2022/12/10 01:54:23;;;;;;;58.30;22.45;;;0.70;99.90;;;;;;5053968;28;20048;-60
2022/12/10 01:56:59;;;;;;;53.13;22.00;;;0.70;99.90;;;;;;5076392;28;20407;-60
2022/12/10 01:59:28;;;;;;;52.38;22.02;;;0.70;99.90;;;;;;5064510;28;20051;-60
2022/12/10 02:02:03;;;;;;;55.88;22.65;;;0.70;99.90;;;;;;5084982;28;20381;-60
2022/12/10 02:05:03;;;;;;;52.15;21.70;;;0.70;99.90;;;;;;5063388;28;20044;-60
2022/12/10 02:07:48;;;;;;;;;;;0.70;99.90;;;;;;5092217;28;20508;-60
2022/12/10 02:10:38;;;;;;;50.17;21.65;;;0.70;99.90;;;;;;5072343;28;19928;-60
2022/12/10 02:13:13;;;;;;;51.60;21.42;;;0.70;99.90;;;;;;5066602;28;20049;-60
2022/12/10 02:15:49;;;;;;;51.00;21.23;;;0.70;99.90;;;;;;5053726;28;20106;-60
2022/12/10 02:18:30;;;;;;;58.45;22.75;;;0.80;99.90;;;;;;5078047;28;20044;-60
2022/12/10 02:21:03;;;;;;;53.65;22.52;;;0.80;99.90;;;;;;5071504;28;20037;-60
2022/12/10 02:23:40;;;;;;;55.05;24.35;;;0.80;99.90;;;;;;5053100;28;20676;-60
2022/12/10 02:26:25;;;;;;;60.05;23.02;;;0.80;99.90;;;;;;5053252;28;20044;-60
2022/12/10 02:29:13;;;;;;;53.08;22.48;;;0.80;99.90;;;;;;5057553;28;20052;-60
2022/12/10 02:31:59;;;;;;;54.97;23.83;;;0.80;99.90;;;;;;5052761;28;20524;-60
2022/12/10 02:34:30;;;;;;;56.83;22.58;;;0.80;99.90;;;;;;5053540;28;20098;-60
2022/12/10 02:37:05;;;;;;;57.08;23.55;;;0.80;99.90;;;;;;5057621;28;20072;-60
2022/12/10 02:39:39;;;;;;;55.15;21.60;;;0.80;99.90;;;;;;5056628;28;20045;-60
2022/12/10 02:42:08;;;;;;;55.75;22.70;;;0.80;99.90;;;;;;5051744;28;20068;-60
2022/12/10 02:44:38;;;;;;;55.47;22.83;;;0.80;99.90;;;;;;5056774;28;20048;-60
2022/12/10 02:47:07;;;;;;;53.80;21.90;;;0.80;99.90;;;;;;5052727;28;20041;-60
2022/12/10 02:49:39;;;;;;;55.97;22.77;;;0.70;99.90;;;;;;5036633;28;20048;-60
2022/12/10 02:52:08;;;;;;;53.38;22.85;;;0.70;99.90;;;;;;5071682;28;20120;-60
2022/12/10 02:54:46;;;;;;;52.33;21.13;;;0.80;99.90;;;;;;5071418;28;20530;-60
2022/12/10 02:57:36;;;;;;;59.30;23.38;;;0.70;99.90;;;;;;5072999;28;20075;-60
2022/12/10 03:00:18;;;;;;;53.00;22.65;;;0.80;99.90;;;;;;5085131;28;20072;-60
2022/12/10 03:03:12;;;;;;;52.00;22.05;;;0.80;99.90;;;;;;5059950;28;20094;-60
2022/12/10 03:05:49;;;;;;;49.88;21.80;;;0.80;99.90;;;;;;5051729;28;20040;-60
2022/12/10 03:08:22;;;;;;;49.45;21.33;;;0.80;99.90;;;;;;5057388;28;20048;-60
2022/12/10 03:10:59;;;;;;;57.78;22.95;;;0.80;99.90;;;;;;5083691;28;20044;-60
2022/12/10 03:13:36;;;;;;;56.53;22.70;;;0.70;99.90;;;;;;5091359;28;20036;-79
2022/12/10 03:16:54;;;;;;;57.88;23.00;;;0.70;99.90;;;;;;5008885;28;20104;-60
2022/12/10 03:19:35;;;;;;;52.50;21.63;;;0.70;99.90;;;;;;5011280;28;20488;-60
2022/12/10 03:22:04;;;;;;;50.97;21.45;;;0.70;99.90;;;;;;4999719;28;20042;-62
2022/12/10 03:24:32;;;;;;;56.45;22.23;;;0.70;99.90;;;;;;5027949;28;20046;-62
2022/12/10 03:26:59;;;;;;;54.40;22.63;;;0.70;99.90;;;;;;5030698;28;20450;-62
2022/12/10 03:29:35;;;;;;;51.67;20.88;;;0.70;99.90;;;;;;5027133;28;20037;-62
2022/12/10 03:32:02;;;;;;;56.17;22.13;;;0.60;99.90;;;;;;5029939;28;20049;-59
2022/12/10 03:34:29;;;;;;;55.70;23.75;;;0.60;99.90;;;;;;5030579;28;20050;-62
2022/12/10 03:36:58;;;;;;;50.30;22.23;;;0.60;99.90;;;;;;5013961;28;20045;-62
2022/12/10 03:39:26;;;;;;;53.13;21.38;;;0.60;99.90;;;;;;5030652;28;20077;-62
2022/12/10 03:41:53;;;;;;;48.50;21.73;;;0.60;99.90;;;;;;5030214;28;20042;-62
2022/12/10 03:44:30;;;;;;;59.05;23.45;;;0.70;99.90;;;;;;5027530;28;20502;-62
2022/12/10 03:46:57;;;;;;;54.05;22.67;;;0.70;99.90;;;;;;5030873;28;20076;-60
2022/12/10 03:49:24;;;;;;;53.15;21.73;;;0.70;99.90;;;;;;5029223;28;20042;-62
2022/12/10 03:51:51;;;;;;;56.15;23.20;;;0.70;99.90;;;;;;5017527;28;20110;-62
2022/12/10 03:54:19;;;;;;;47.60;21.25;;;0.80;99.90;;;;;;5025563;28;20037;-60
2022/12/10 03:56:45;;;;;;;54.25;22.45;;;0.70;99.90;;;;;;5030545;28;20457;-62
2022/12/10 03:59:12;;;;;;;40.28;16.08;;;0.70;99.90;;;;;;5030725;28;20071;-62
2022/12/10 04:01:40;;;;;;;42.75;16.83;;;0.70;99.90;;;;;;5024003;28;20468;-62
2022/12/10 04:04:06;;;;;;;60.53;23.30;;;0.60;99.90;;;;;;5017696;28;20052;-62
2022/12/10 04:06:34;;;;;;;52.42;23.70;;;0.60;99.90;;;;;;5032792;28;20099;-62
2022/12/10 04:09:00;;;;;;;52.03;23.20;;;0.60;99.90;;;;;;5033449;28;20041;-62
2022/12/10 04:11:27;;;;;;;41.35;16.45;;;0.60;99.90;;;;;;5033853;28;20040;-62
2022/12/10 04:16:39;;;;;;;55.50;23.40;;;0.60;99.90;;;;;;5033958;28;20037;-62
2022/12/10 04:19:12;;;;;;;39.58;15.82;;;0.60;99.90;;;;;;5034201;28;20056;-59
2022/12/10 04:27:25;;;;;;;52.42;22.48;;;0.60;99.90;;;;;;5030399;28;20077;-62
2022/12/10 04:29:53;;;;;;;62.30;24.60;;;0.60;99.90;;;;;;5020247;28;20037;-62
2022/12/10 04:32:21;;;;;;;67.43;24.63;;;0.60;99.90;;;;;;5032535;28;20046;-62
2022/12/10 04:34:48;;;;;;;62.72;24.20;;;0.60;99.90;;;;;;5033475;28;20034;-62
2022/12/10 04:37:15;;;;;;;61.65;23.75;;;0.60;99.90;;;;;;5025236;28;20049;-62
2022/12/10 04:39:42;;;;;;;59.83;24.55;;;0.60;99.90;;;;;;5033671;28;20052;-61
2022/12/10 04:42:09;;;;;;;49.25;17.83;;;0.60;99.90;;;;;;5032971;28;20115;-62
2022/12/10 04:44:36;;;;;;;61.40;24.55;;;0.60;99.90;;;;;;5032783;28;20046;-62
2022/12/10 04:47:04;;;;;;;57.60;24.02;;;0.60;99.90;;;;;;5024187;28;20465;-61
2022/12/10 04:49:31;;;;;;;61.80;25.40;;;0.60;99.90;;;;;;5033080;28;20045;-61
2022/12/10 04:51:58;;;;;;;66.93;25.73;;;0.60;99.90;;;;;;5032983;28;20049;-62
2022/12/10 04:54:26;;;;;;;58.63;23.55;;;0.60;99.90;;;;;;5022837;28;20095;-61
2022/12/10 04:56:53;;;;;;;62.35;25.25;;;0.60;99.90;;;;;;5020089;28;20046;-62
2022/12/10 04:59:20;;;;;;;60.67;25.30;;;0.60;99.90;;;;;;5013137;28;20077;-61
2022/12/10 05:01:47;;;;;;;59.92;24.38;;;0.70;99.90;;;;;;5008218;28;20399;-61
2022/12/10 05:04:16;;;;;;;65.55;25.45;;;0.70;99.90;;;;;;5029254;28;20065;-61
2022/12/10 05:06:44;;;;;;;58.78;24.67;;;0.70;99.90;;;;;;4993447;28;20050;-62
2022/12/10 05:09:11;;;;;;;;;;;0.70;99.90;;;;;;4994079;28;20042;-62
2022/12/10 05:11:38;;;;;;;64.57;26.10;;;0.70;99.90;;;;;;5019744;28;19975;-62
2022/12/10 05:14:05;;;;;;;62.60;26.17;;;0.70;99.90;;;;;;5013186;28;20055;-61
2022/12/10 05:16:33;;;;;;;71.93;24.75;;;0.70;99.90;;;;;;5012308;28;20037;-61
2022/12/10 05:19:00;;;;;;;58.67;24.35;;;0.70;99.90;;;;;;5012856;28;20096;-61
2022/12/10 05:23:27;;;;;;;59.17;24.73;;;1.20;99.90;;;;;;5004176;28;20044;-61
2022/12/10 05:24:16;;;;;;;63.05;23.98;;;0.80;99.90;;;;;;5012013;28;20490;-61
2022/12/10 05:26:44;;;;;;;57.85;23.38;;;0.80;99.90;;;;;;5010606;28;20038;-62
2022/12/10 05:29:12;;;;;;;60.60;23.98;;;0.70;99.90;;;;;;5023835;28;20494;-62
2022/12/10 05:31:39;;;;;;;58.22;23.30;;;0.70;99.90;;;;;;5022059;28;20037;-62
2022/12/10 05:34:08;;;;;;;51.88;18.63;;;0.70;99.90;;;;;;5032045;28;20037;-61
2022/12/10 05:36:34;;;;;;;58.38;24.92;;;0.70;99.90;;;;;;5031698;28;20099;-62
2022/12/10 05:39:01;;;;;;;62.25;25.15;;;0.70;99.90;;;;;;5022907;28;20081;-62
2022/12/10 05:41:30;;;;;;;47.35;18.30;;;0.70;99.90;;;;;;5028149;28;20104;-62
2022/12/10 05:43:58;;;;;;;62.35;24.20;;;0.70;99.90;;;;;;5029235;28;20042;-62
2022/12/10 05:46:28;;;;;;;65.45;25.90;;;0.70;99.90;;;;;;5027999;28;20064;-61
2022/12/10 05:48:55;;;;;;;72.55;25.98;;;0.60;99.90;;;;;;5031497;28;20270;-61
2022/12/10 05:51:25;;;;;;;66.50;24.70;;;0.60;99.90;;;;;;5032247;28;20049;-62
2022/12/10 05:53:53;;;;;;;59.40;25.15;;;0.60;99.90;;;;;;5022434;28;20160;-61
2022/12/10 05:56:22;;;;;;;66.65;25.88;;;0.60;99.90;;;;;;5032208;28;20172;-61
2022/12/10 05:58:51;;;;;;;65.88;25.40;;;0.50;99.90;;;;;;5031993;28;20033;-62
2022/12/10 06:01:21;;;;;;;67.43;25.58;;;0.50;99.90;;;;;;5029522;28;20037;-61
2022/12/10 06:03:49;;;;;;;67.90;23.75;;;0.50;99.90;;;;;;5019540;28;20053;-62
2022/12/10 06:06:24;;;;;;;67.28;25.75;;;0.50;99.90;;;;;;5017406;28;20092;-61
2022/12/10 06:08:51;;;;;;;57.63;23.35;;;0.60;99.90;;;;;;5017378;28;20037;-61
2022/12/10 06:11:19;;;;;;;60.50;25.85;;;0.60;99.90;;;;;;5012696;28;20051;-61
2022/12/10 06:13:46;;;;;;;44.00;17.98;;;0.60;99.90;;;;;;5031388;28;20041;-61
2022/12/10 06:16:18;;;;;;;67.30;25.70;;;0.60;99.90;;;;;;5015932;28;20048;-62
2022/12/10 06:18:45;;;;;;;60.63;24.10;;;0.60;99.90;;;;;;5031852;28;20445;-62
2022/12/10 06:21:15;;;;;;;74.82;26.10;;;0.60;99.90;;;;;;5027774;28;20073;-62
2022/12/10 06:23:42;;;;;;;75.38;26.83;;;0.60;99.90;;;;;;5031234;28;20461;-61
2022/12/10 06:26:13;;;;;;;;;;;0.60;99.90;;;;;;5031258;28;20564;-61
2022/12/10 06:28:41;;;;;;;63.72;24.80;;;0.70;99.90;;;;;;5029822;28;19967;-64
2022/12/10 06:31:08;;;;;;;64.78;25.42;;;0.70;99.90;;;;;;5007139;28;20065;-62
2022/12/10 06:33:35;;;;;;;47.78;18.08;;;0.70;99.90;;;;;;5011011;28;20499;-61
2022/12/10 06:36:07;;;;;;;63.33;25.65;;;0.80;99.90;;;;;;5031646;28;20046;-62
2022/12/10 06:38:34;;;;;;;69.40;25.90;;;0.80;99.90;;;;;;5028117;28;20633;-62
2022/12/10 06:41:05;;;;;;;65.82;25.67;;;0.80;99.90;;;;;;5031167;28;20466;-62
2022/12/10 06:43:31;;;;;;;61.05;24.80;;;0.80;99.90;;;;;;5030953;28;20543;-62
2022/12/10 06:45:58;;;;;;;46.50;18.33;;;0.80;99.90;;;;;;5011330;28;20076;-62
2022/12/10 06:48:25;;;;;;;67.35;25.25;;;0.80;99.90;;;;;;5031153;28;20053;-61
2022/12/10 06:50:52;;;;;;;61.95;26.10;;;0.80;99.90;;;;;;5030958;28;20041;-62
2022/12/10 06:53:19;;;;;;;70.57;27.15;;;0.80;99.90;;;;;;5028434;28;20064;-62
2022/12/10 06:55:45;;;;;;;68.35;26.55;;;0.80;99.90;;;;;;5031293;28;20049;-61
2022/12/10 06:58:12;;;;;;;63.45;24.95;;;0.80;99.90;;;;;;5030281;28;20077;-62
2022/12/10 07:00:39;;;;;;;46.60;18.90;;;0.80;99.90;;;;;;5031322;28;20045;-62
2022/12/10 07:03:05;;;;;;;72.15;25.75;;;0.80;99.90;;;;;;5012986;28;20629;-61
2022/12/10 07:05:32;;;;;;;66.32;25.15;;;0.80;99.90;;;;;;5031132;28;20111;-61
2022/12/10 07:07:59;;;;;;;45.78;16.88;;;0.70;99.90;;;;;;5030962;28;20065;-62
2022/12/10 07:10:26;;;;;;;57.53;24.75;;;0.80;99.90;;;;;;5028117;28;20049;-62
2022/12/10 07:12:52;;;;;;;65.85;25.08;;;0.80;99.90;;;;;;5030497;28;20041;-62
2022/12/10 07:15:19;;;;;;;60.75;25.75;;;0.80;99.90;;;;;;5030361;28;20072;-62
2022/12/10 07:17:46;;;;;;;65.82;24.45;;;0.70;99.90;;;;;;5024380;28;20054;-61
2022/12/10 07:20:12;;;;;;;61.50;25.02;;;0.70;99.90;;;;;;5007293;28;20042;-61
2022/12/10 07:22:39;;;;;;;75.65;26.55;;;0.70;99.90;;;;;;5011213;28;20092;-61
2022/12/10 07:25:06;;;;;;;64.00;25.15;;;0.70;99.90;;;;;;5011180;28;20042;-62
2022/12/10 07:27:33;;;;;;;72.00;26.48;;;0.70;99.90;;;;;;5010227;28;20058;-62
2022/12/10 07:30:00;;;;;;;72.05;25.80;;;0.70;99.90;;;;;;5006277;28;20045;-62
2022/12/10 07:32:27;;;;;;;62.38;26.00;;;0.70;99.90;;;;;;5010793;28;20494;-62
2022/12/10 07:34:54;;;;;;;68.13;26.25;;;0.70;99.90;;;;;;5021714;28;20076;-62
2022/12/10 07:37:21;;;;;;;48.90;18.48;;;0.70;99.90;;;;;;5030613;28;20073;-62
2022/12/10 07:39:47;;;;;;;61.83;23.77;;;0.70;99.90;;;;;;5013141;28;20089;-61
2022/12/10 07:42:14;;;;;;;43.63;17.38;;;0.80;99.90;;;;;;5032110;28;20506;-61
2022/12/10 07:44:41;;;;;;;63.38;24.52;;;0.80;99.90;;;;;;5033492;28;20071;-62
2022/12/10 07:47:14;;;;;;;61.42;24.52;;;0.90;99.90;;;;;;5034493;28;20053;-63
2022/12/10 07:49:41;;;;;;;40.78;17.42;;;0.90;99.90;;;;;;5034426;28;20045;-61
2022/12/10 07:52:09;;;;;;;;;;;0.90;99.90;;;;;;5011871;28;20042;-62
2022/12/10 07:54:35;;;;;;;69.20;26.17;;;0.90;99.90;;;;;;5014450;28;19964;-61
2022/12/10 07:57:02;;;;;;;61.35;25.08;;;1.00;99.90;;;;;;5014606;28;20084;-62
2022/12/10 07:59:30;;;;;;;60.67;25.15;;;1.00;99.90;;;;;;5006594;28;20503;-62
2022/12/10 08:01:57;;;;;;;60.67;24.88;;;1.00;99.90;;;;;;5021377;28;20075;-62
2022/12/10 08:04:23;;;;;;;44.55;17.95;;;1.00;99.90;;;;;;5016795;28;20595;-62
2022/12/10 08:06:54;;;;;;;67.72;25.75;;;1.00;99.90;;;;;;5014301;28;20088;-62
2022/12/10 08:09:21;;;;;;;64.00;25.52;;;0.90;99.90;;;;;;5005342;28;20124;-62
2022/12/10 08:11:48;;;;;;;65.28;25.67;;;0.90;99.90;;;;;;5029346;28;20384;-62
2022/12/10 08:14:14;;;;;;;64.68;24.80;;;1.00;99.90;;;;;;5013700;28;20033;-61
2022/12/10 08:16:41;;;;;;;59.25;24.75;;;1.00;99.90;;;;;;5008760;28;20371;-62
2022/12/10 08:19:08;;;;;;;60.97;24.27;;;1.00;99.90;;;;;;5026698;28;20116;-62
2022/12/10 08:21:35;;;;;;;69.80;25.10;;;1.00;99.90;;;;;;5012733;28;20522;-61
2022/12/10 08:24:02;;;;;;;71.55;27.85;;;1.00;99.90;;;;;;5013597;28;20038;-61
2022/12/10 08:26:31;;;;;;;63.60;24.75;;;1.00;99.90;;;;;;5022162;28;20046;-61
2022/12/10 08:28:58;;;;;;;66.57;25.70;;;1.00;99.90;;;;;;5019576;28;20050;-61
2022/12/10 08:31:26;;;;;;;62.80;26.50;;;0.90;99.90;;;;;;5013218;28;20038;-62
2022/12/10 08:33:53;;;;;;;65.80;25.75;;;1.00;99.90;;;;;;5011457;28;20046;-61
2022/12/10 08:36:21;;;;;;;68.78;26.10;;;1.00;99.90;;;;;;5030319;28;20395;-62
2022/12/10 08:38:47;;;;;;;;;;;1.10;99.90;;;;;;5013873;28;20513;-61
2022/12/10 08:41:17;;;;;;;66.20;25.80;;;1.20;99.90;;;;;;4995667;28;20460;-62
2022/12/10 08:43:44;;;;;;;71.53;26.38;;;1.30;99.90;;;;;;5021640;28;20041;-62
2022/12/10 08:46:13;;;;;;;68.15;26.55;;;1.20;99.90;;;;;;5033543;28;20076;-62
2022/12/10 08:48:41;;;;;;;70.40;26.90;;;1.20;99.90;;;;;;5032149;28;20053;-62
2022/12/10 08:51:10;;;;;;;69.35;25.88;;;1.20;99.90;;;;;;5022882;28;20046;-62
2022/12/10 08:53:37;;;;;;;63.28;24.95;;;1.20;99.90;;;;;;5008527;28;20069;-62
2022/12/10 08:56:04;;;;;;;63.75;24.73;;;1.30;99.90;;;;;;5013011;28;20125;-62
2022/12/10 08:58:31;;;;;;;55.92;24.13;;;1.30;99.90;;;;;;5013590;28;20045;-62
2022/12/10 09:00:58;;;;;;;43.72;17.25;;;1.30;99.90;;;;;;5009342;28;20050;-62
2022/12/10 09:03:25;;;;;;;54.08;23.50;;;1.30;99.90;;;;;;5032429;28;20041;-62
2022/12/10 09:05:52;;;;;;;41.25;16.27;;;1.30;99.90;;;;;;5017203;28;20041;-62
2022/12/10 09:08:19;;;;;;;47.15;17.17;;;1.40;99.90;;;;;;5033017;28;20100;-62
2022/12/10 09:10:45;;;;;;;62.58;23.92;;;1.40;99.90;;;;;;5018603;28;20128;-61
2022/12/10 09:13:12;;;;;;;63.75;23.00;;;1.50;99.90;;;;;;5011913;28;20034;-62
2022/12/10 09:15:39;;;;;;;60.80;23.88;;;1.40;99.90;;;;;;5081640;22;20087;-65
2022/12/10 09:18:05;;;;;;;61.58;24.73;;;1.50;99.90;;;;;;5068573;28;20114;-66
2022/12/10 09:20:32;;;;;;;42.65;16.98;;;1.50;99.90;;;;;;5094691;28;20062;-65
2022/12/10 09:22:59;;;;;;;55.78;23.65;;;1.60;99.90;;;;;;5086137;28;20036;-65
2022/12/10 09:25:26;;;;;;;58.85;22.58;;;1.60;99.90;;;;;;5086709;28;20098;-65
2022/12/10 09:27:52;;;;;;;38.75;16.50;;;1.70;99.90;;;;;;5092253;28;20048;-65
2022/12/10 09:30:19;;;;;;;38.33;16.10;;;1.80;99.90;;;;;;5091006;28;20080;-65
2022/12/10 09:32:46;;;;;;;54.20;22.85;;;1.80;99.90;;;;;;5088005;28;20121;-65
2022/12/10 09:35:13;;;;;;;40.15;17.10;;;1.80;99.90;;;;;;5079954;28;20036;-65
2022/12/10 09:37:39;;;;;;;39.13;16.00;;;1.90;99.90;;;;;;5092345;28;20094;-65
2022/12/10 09:40:07;;;;;;;47.17;21.45;;;1.80;99.90;;;;;;5092327;28;20044;-65
2022/12/10 09:42:51;;;;;;;58.00;23.17;;;1.80;99.90;;;;;;5087144;28;20075;-65
2022/12/10 09:45:36;;;;;;;64.90;24.88;;;1.70;99.90;;;;;;5079535;28;20530;-62
2022/12/10 09:48:08;;;;;;;60.50;22.90;;;1.60;99.90;;;;;;5083926;28;20407;-65
2022/12/10 09:50:48;;;;;;;58.75;23.52;;;1.50;99.90;;;;;;5070853;28;20404;-65
2022/12/10 09:53:20;;;;;;;60.00;26.05;;;1.50;99.90;;;;;;5084608;28;20040;-65
2022/12/10 09:55:49;;;;;;;66.95;25.65;;;1.50;99.90;;;;;;5069413;28;20405;-64
2022/12/10 09:58:24;;;;;;;62.90;25.17;;;1.50;99.90;;;;;;5086901;28;20071;-64
2022/12/10 10:00:59;;;;;;;57.50;24.65;;;1.50;99.90;;;;;;5090035;28;20054;-64
2022/12/10 10:03:26;;;;;;;68.40;25.15;;;1.50;99.90;;;;;;5096350;28;20088;-65
2022/12/10 10:05:56;;;;;;;57.90;24.65;;;1.50;99.90;;;;;;5096116;28;20032;-65
2022/12/10 10:08:29;;;;;;;65.70;26.75;;;1.40;99.90;;;;;;5086948;28;20040;-65
2022/12/10 10:10:56;;;;;;;64.60;24.80;;;1.40;99.90;;;;;;5098714;28;20040;-65
2022/12/10 10:13:36;;;;;;;61.90;24.05;;;1.50;99.90;;;;;;5097336;28;20059;-65
2022/12/10 10:16:26;;;;;;;60.08;24.08;;;1.50;99.90;;;;;;5093299;28;20028;-65
2022/12/10 10:19:04;;;;;;;63.25;24.08;;;1.50;99.90;;;;;;5099788;28;20048;-65
2022/12/10 10:21:31;;;;;;;53.53;23.02;;;1.50;99.90;;;;;;5094217;28;20078;-64
2022/12/10 10:23:58;;;;;;;61.25;25.02;;;1.50;99.90;;;;;;5091129;28;20040;-64
2022/12/10 10:26:26;;;;;;;60.03;25.58;;;1.50;99.90;;;;;;5096907;28;20055;-64
2022/12/10 10:29:00;;;;;;;60.50;25.70;;;1.50;99.90;;;;;;5095665;28;20507;-64
2022/12/10 10:31:30;;;;;;;56.97;23.83;;;1.40;99.90;;;;;;5086678;28;20040;-64
2022/12/10 10:34:00;;;;;;;54.17;24.35;;;1.40;99.90;;;;;;5086085;28;20052;-64
2022/12/10 10:36:35;;;;;;;66.05;25.55;;;1.40;99.90;;;;;;5091150;28;20040;-64
2022/12/10 10:39:11;;;;;;;54.17;24.25;;;1.30;99.90;;;;;;5089518;28;20047;-64
2022/12/10 10:41:40;;;;;;;54.25;22.63;;;1.30;99.90;;;;;;5089847;28;20093;-64
2022/12/10 10:44:18;;;;;;;56.10;22.80;;;1.30;99.90;;;;;;5090712;28;20039;-64
2022/12/10 10:46:47;;;;;;;53.72;21.00;;;1.30;99.90;;;;;;5090946;28;20071;-64
2022/12/10 10:49:24;;;;;;;56.95;22.13;;;1.30;99.90;;;;;;5090731;28;20045;-64
2022/12/10 10:51:53;;;;;;;53.25;22.20;;;1.30;99.90;;;;;;5086099;28;20090;-64
2022/12/10 10:54:42;;;;;;;47.90;20.02;;;1.20;99.90;;;;;;5091261;28;20032;-64
2022/12/10 10:57:27;;;;;;;47.70;18.88;;;1.30;99.90;;;;;;5090401;28;20097;-65
2022/12/10 11:00:03;;;;;;;48.70;21.20;;;1.30;99.90;;;;;;5088230;28;20097;-64
2022/12/10 11:02:40;;;;;;;50.67;20.48;;;1.30;99.90;;;;;;5091006;28;20103;-65
2022/12/10 11:05:29;;;;;;;43.67;19.15;;;1.30;99.90;;;;;;5094426;28;20048;-64
2022/12/10 11:08:05;;;;;;;48.53;19.80;;;1.30;99.90;;;;;;5087563;28;20040;-64
2022/12/10 11:10:32;;;;;;;45.65;20.05;;;1.40;99.90;;;;;;5089436;28;20552;-64
2022/12/10 11:13:04;;;;;;;50.15;20.42;;;1.40;99.90;;;;;;5087882;28;20029;-64
2022/12/10 11:15:33;;;;;;;50.15;22.27;;;1.50;99.90;;;;;;5092313;28;20040;-64
2022/12/10 11:18:02;;;;;;;46.53;20.90;;;1.50;99.90;;;;;;5089438;28;20036;-64
2022/12/10 11:20:32;;;;;;;48.42;21.45;;;1.60;99.90;;;;;;5094558;28;20044;-64
2022/12/10 11:23:13;;;;;;;48.05;19.80;;;1.60;99.90;;;;;;5092852;28;20044;-64
2022/12/10 11:25:48;;;;;;;42.70;19.30;;;1.60;99.90;;;;;;5094462;28;20053;-64
2022/12/10 11:28:53;;;;;;;42.80;18.60;;;1.60;99.90;;;;;;5091645;28;20032;-64
2022/12/10 11:31:48;;;;;;;42.50;18.42;;;1.60;99.90;;;;;;5091952;28;20044;-64
2022/12/10 11:34:33;;;;;;;38.90;18.65;;;1.60;99.90;;;;;;5088052;28;20082;-64
2022/12/10 11:37:16;;;;;;;44.67;17.77;;;1.60;99.90;;;;;;5101608;28;20143;-64
2022/12/10 11:39:49;;;;;;;34.35;17.05;;;1.40;99.90;;;;;;5114771;28;20074;-64
2022/12/10 11:42:41;;;;;;;44.00;18.30;;;1.40;99.90;;;;;;5091515;28;20402;-64
2022/12/10 11:45:20;;;;;;;34.08;15.75;;;1.40;99.90;;;;;;5082978;28;20048;-64
2022/12/10 11:48:04;;;;;;;35.45;17.35;;;1.40;99.90;;;;;;5074634;28;20044;-64
2022/12/10 11:50:48;;;;;;;36.75;16.48;;;1.40;99.90;;;;;;5074376;28;20041;-64
2022/12/10 11:53:52;;;;;;;39.97;16.85;;;1.40;99.90;;;;;;5082335;28;20402;-64
2022/12/10 11:56:28;;;;;;;36.92;16.38;;;1.50;99.90;;;;;;5074437;28;20563;-65
2022/12/10 11:59:22;;;;;;;36.42;15.68;;;1.50;99.90;;;;;;5074663;28;20049;-64
2022/12/10 12:02:27;;;;;;;35.88;16.77;;;1.50;99.90;;;;;;5104462;28;20146;-64
2022/12/10 12:05:09;;;;;;;35.20;16.27;;;1.40;99.90;;;;;;5073672;28;20041;-64
2022/12/10 12:07:42;;;;;;;39.47;16.95;;;1.40;99.90;;;;;;5073956;28;20049;-64
2022/12/10 12:10:44;;;;;;;42.22;17.05;;;1.40;99.90;;;;;;5096168;28;20080;-64
2022/12/10 12:13:35;;;;;;;43.60;16.45;;;1.40;99.90;;;;;;5075469;28;20455;-65
2022/12/10 12:16:17;;;;;;;48.28;18.13;;;1.40;99.90;;;;;;5082572;28;20056;-64
2022/12/10 12:19:02;;;;;;;40.55;17.55;;;1.30;99.90;;;;;;5093957;28;20044;-64
2022/12/10 12:21:29;;;;;;;48.00;19.08;;;1.30;99.90;;;;;;5085529;28;20028;-64
2022/12/10 12:24:11;;;;;;;38.92;17.50;;;1.30;99.90;;;;;;5091634;28;20040;-64
2022/12/10 12:26:54;;;;;;;46.97;17.30;;;1.30;99.90;;;;;;5092514;28;20400;-64
2022/12/10 12:29:26;;;;;;;44.17;18.65;;;1.30;99.90;;;;;;5106605;28;20491;-63
2022/12/10 12:32:33;;;;;;;45.30;17.42;;;1.30;99.90;;;;;;5113762;28;20040;-64
2022/12/10 12:35:14;;;;;;;46.50;17.88;;;1.30;99.90;;;;;;5098046;28;20055;-63
2022/12/10 12:37:59;;;;;;;48.67;18.25;;;1.30;99.90;;;;;;5105379;28;21610;-64
2022/12/10 12:40:26;;;;;;;51.92;19.33;;;1.40;99.90;;;;;;5114058;28;20081;-63
2022/12/10 12:43:09;;;;;;;56.25;20.17;;;1.30;99.90;;;;;;5113682;28;20515;-63
2022/12/10 12:45:47;;;;;;;59.83;21.27;;;1.30;99.90;;;;;;5111195;28;20048;-63
2022/12/10 12:48:24;;;;;;;54.55;20.80;;;1.30;99.90;;;;;;5113457;28;20556;-63
2022/12/10 12:51:03;;;;;;;43.33;14.90;;;1.30;99.90;;;;;;5113936;28;20063;-63
2022/12/10 12:53:30;;;;;;;56.55;19.95;;;1.30;99.90;;;;;;5104740;28;20086;-63
2022/12/10 12:56:10;;;;;;;51.13;20.02;;;1.20;99.90;;;;;;5085188;28;20485;-63
2022/12/10 12:58:48;;;;;;;55.40;20.35;;;1.30;99.90;;;;;;5093606;28;20044;-64
2022/12/10 13:01:30;;;;;;;;;;;1.30;99.90;;;;;;5100457;28;20126;-64
2022/12/10 13:03:57;;;;;;;54.55;20.23;;;1.30;99.90;;;;;;5091487;28;19990;-64
2022/12/10 13:06:25;;;;;;;;;;;1.30;99.90;;;;;;5083894;28;20047;-64
2022/12/10 13:08:58;;;;;;;57.00;20.40;;;1.30;99.90;;;;;;5091963;28;19965;-63
2022/12/10 13:11:35;;;;;;;58.40;21.42;;;1.30;99.90;;;;;;5109553;28;20054;-63
2022/12/10 13:14:08;;;;;;;56.28;21.95;;;1.20;99.90;;;;;;5088890;28;20085;-63